sensor_id;sensor_type;location;lat;lon;timestamp;P1;durP1;ratioP1;P2;durP2;ratioP2
56015;SDS011;41894;51.016;4.672;2023-02-26T00:01:37;20.33;;;7.00;;
56015;SDS011;41894;51.016;4.672;2023-02-26T00:04:05;22.63;;;7.75;;
56015;SDS011;41894;51.016;4.672;2023-02-26T00:06:32;15.48;;;7.38;;
56015;SDS011;41894;51.016;4.672;2023-02-26T00:09:00;18.27;;;6.50;;
56015;SDS011;41894;51.016;4.672;2023-02-26T00:11:27;18.45;;;6.88;;
56015;SDS011;41894;51.016;4.672;2023-02-26T00:13:54;18.30;;;6.72;;
56015;SDS011;41894;51.016;4.672;2023-02-26T00:16:28;20.75;;;6.53;;
56015;SDS011;41894;51.016;4.672;2023-02-26T00:18:56;16.67;;;6.13;;
56015;SDS011;41894;51.016;4.672;2023-02-26T00:21:23;15.80;;;6.38;;
56015;SDS011;41894;51.016;4.672;2023-02-26T00:23:51;16.55;;;6.28;;
56015;SDS011;41894;51.016;4.672;2023-02-26T00:26:17;17.98;;;6.30;;
56015;SDS011;41894;51.016;4.672;2023-02-26T00:28:43;13.82;;;6.03;;
56015;SDS011;41894;51.016;4.672;2023-02-26T00:31:10;18.73;;;6.88;;
56015;SDS011;41894;51.016;4.672;2023-02-26T00:33:38;10.95;;;5.88;;
56015;SDS011;41894;51.016;4.672;2023-02-26T00:36:12;17.52;;;6.22;;
56015;SDS011;41894;51.016;4.672;2023-02-26T00:39:43;15.75;;;5.90;;
56015;SDS011;41894;51.016;4.672;2023-02-26T00:41:46;14.23;;;6.07;;
56015;SDS011;41894;51.016;4.672;2023-02-26T00:44:13;19.92;;;6.50;;
56015;SDS011;41894;51.016;4.672;2023-02-26T00:52:18;18.60;;;6.47;;
56015;SDS011;41894;51.016;4.672;2023-02-26T00:55:05;17.88;;;6.60;;
56015;SDS011;41894;51.016;4.672;2023-02-26T00:57:31;17.05;;;7.65;;
56015;SDS011;41894;51.016;4.672;2023-02-26T00:59:57;20.58;;;6.57;;
56015;SDS011;41894;51.016;4.672;2023-02-26T01:02:23;18.27;;;6.05;;
56015;SDS011;41894;51.016;4.672;2023-02-26T01:04:56;21.48;;;7.13;;
56015;SDS011;41894;51.016;4.672;2023-02-26T01:07:23;16.95;;;6.00;;
56015;SDS011;41894;51.016;4.672;2023-02-26T01:09:50;16.92;;;6.35;;
56015;SDS011;41894;51.016;4.672;2023-02-26T01:12:17;20.48;;;5.90;;
56015;SDS011;41894;51.016;4.672;2023-02-26T01:14:43;15.25;;;6.10;;
56015;SDS011;41894;51.016;4.672;2023-02-26T01:22:18;12.05;;;5.80;;
56015;SDS011;41894;51.016;4.672;2023-02-26T01:24:46;15.10;;;6.00;;
56015;SDS011;41894;51.016;4.672;2023-02-26T01:27:15;19.08;;;6.63;;
56015;SDS011;41894;51.016;4.672;2023-02-26T01:29:42;18.23;;;6.07;;
56015;SDS011;41894;51.016;4.672;2023-02-26T01:32:11;20.63;;;6.15;;
56015;SDS011;41894;51.016;4.672;2023-02-26T01:35:00;16.45;;;5.88;;
56015;SDS011;41894;51.016;4.672;2023-02-26T01:43:13;21.65;;;5.70;;
56015;SDS011;41894;51.016;4.672;2023-02-26T01:45:53;15.10;;;5.43;;
56015;SDS011;41894;51.016;4.672;2023-02-26T01:48:36;15.57;;;5.25;;
56015;SDS011;41894;51.016;4.672;2023-02-26T01:51:09;11.73;;;5.82;;
56015;SDS011;41894;51.016;4.672;2023-02-26T01:53:35;12.20;;;5.55;;
56015;SDS011;41894;51.016;4.672;2023-02-26T01:56:03;14.27;;;6.07;;
56015;SDS011;41894;51.016;4.672;2023-02-26T01:58:35;16.73;;;5.30;;
56015;SDS011;41894;51.016;4.672;2023-02-26T02:01:02;20.70;;;5.78;;
56015;SDS011;41894;51.016;4.672;2023-02-26T02:06:55;12.95;;;5.00;;
56015;SDS011;41894;51.016;4.672;2023-02-26T02:16:06;12.88;;;4.72;;
56015;SDS011;41894;51.016;4.672;2023-02-26T02:30:21;11.00;;;3.78;;
56015;SDS011;41894;51.016;4.672;2023-02-26T02:33:15;17.05;;;4.70;;
56015;SDS011;41894;51.016;4.672;2023-02-26T02:35:51;13.38;;;3.95;;
56015;SDS011;41894;51.016;4.672;2023-02-26T02:41:29;14.82;;;4.38;;
56015;SDS011;41894;51.016;4.672;2023-02-26T02:44:00;6.68;;;3.88;;
56015;SDS011;41894;51.016;4.672;2023-02-26T02:46:50;9.27;;;3.70;;
56015;SDS011;41894;51.016;4.672;2023-02-26T02:49:28;13.32;;;4.25;;
56015;SDS011;41894;51.016;4.672;2023-02-26T02:52:20;15.35;;;3.63;;
56015;SDS011;41894;51.016;4.672;2023-02-26T02:55:21;17.13;;;4.47;;
56015;SDS011;41894;51.016;4.672;2023-02-26T02:57:57;13.75;;;4.20;;
56015;SDS011;41894;51.016;4.672;2023-02-26T03:00:30;13.20;;;4.18;;
56015;SDS011;41894;51.016;4.672;2023-02-26T03:09:35;17.83;;;4.70;;
56015;SDS011;41894;51.016;4.672;2023-02-26T03:12:11;11.93;;;4.50;;
56015;SDS011;41894;51.016;4.672;2023-02-26T03:14:37;15.13;;;4.38;;
56015;SDS011;41894;51.016;4.672;2023-02-26T03:17:07;13.30;;;3.85;;
56015;SDS011;41894;51.016;4.672;2023-02-26T03:36:47;10.20;;;4.22;;
56015;SDS011;41894;51.016;4.672;2023-02-26T03:39:28;11.43;;;3.50;;
56015;SDS011;41894;51.016;4.672;2023-02-26T03:44:29;8.90;;;3.90;;
56015;SDS011;41894;51.016;4.672;2023-02-26T03:47:17;11.70;;;3.97;;
56015;SDS011;41894;51.016;4.672;2023-02-26T03:52:12;10.93;;;3.88;;
56015;SDS011;41894;51.016;4.672;2023-02-26T03:54:44;10.50;;;3.90;;
56015;SDS011;41894;51.016;4.672;2023-02-26T03:57:25;9.15;;;4.00;;
56015;SDS011;41894;51.016;4.672;2023-02-26T03:59:51;12.20;;;4.53;;
56015;SDS011;41894;51.016;4.672;2023-02-26T04:02:26;13.30;;;4.07;;
56015;SDS011;41894;51.016;4.672;2023-02-26T04:04:58;11.95;;;3.78;;
56015;SDS011;41894;51.016;4.672;2023-02-26T04:07:30;11.15;;;4.15;;
56015;SDS011;41894;51.016;4.672;2023-02-26T04:09:56;12.73;;;3.65;;
56015;SDS011;41894;51.016;4.672;2023-02-26T04:12:23;12.63;;;3.75;;
56015;SDS011;41894;51.016;4.672;2023-02-26T04:14:50;15.32;;;3.35;;
56015;SDS011;41894;51.016;4.672;2023-02-26T04:17:16;11.32;;;3.63;;
56015;SDS011;41894;51.016;4.672;2023-02-26T04:19:43;10.80;;;3.33;;
56015;SDS011;41894;51.016;4.672;2023-02-26T04:22:09;9.60;;;3.40;;
56015;SDS011;41894;51.016;4.672;2023-02-26T04:24:35;8.93;;;3.22;;
56015;SDS011;41894;51.016;4.672;2023-02-26T04:27:01;11.52;;;4.03;;
56015;SDS011;41894;51.016;4.672;2023-02-26T04:29:27;10.88;;;3.50;;
56015;SDS011;41894;51.016;4.672;2023-02-26T04:31:53;9.32;;;3.42;;
56015;SDS011;41894;51.016;4.672;2023-02-26T04:34:19;14.35;;;3.67;;
56015;SDS011;41894;51.016;4.672;2023-02-26T04:36:45;10.65;;;3.42;;
56015;SDS011;41894;51.016;4.672;2023-02-26T04:39:20;16.98;;;3.30;;
56015;SDS011;41894;51.016;4.672;2023-02-26T04:41:46;9.38;;;3.22;;
56015;SDS011;41894;51.016;4.672;2023-02-26T04:44:12;7.68;;;3.22;;
56015;SDS011;41894;51.016;4.672;2023-02-26T04:46:38;10.27;;;3.25;;
56015;SDS011;41894;51.016;4.672;2023-02-26T04:49:04;10.50;;;3.05;;
56015;SDS011;41894;51.016;4.672;2023-02-26T04:51:30;14.32;;;3.08;;
56015;SDS011;41894;51.016;4.672;2023-02-26T04:53:56;10.32;;;3.10;;
56015;SDS011;41894;51.016;4.672;2023-02-26T04:56:22;9.80;;;3.58;;
56015;SDS011;41894;51.016;4.672;2023-02-26T04:58:48;9.05;;;3.08;;
56015;SDS011;41894;51.016;4.672;2023-02-26T05:01:14;13.65;;;3.40;;
56015;SDS011;41894;51.016;4.672;2023-02-26T05:03:40;10.90;;;2.92;;
56015;SDS011;41894;51.016;4.672;2023-02-26T05:06:06;14.20;;;3.28;;
56015;SDS011;41894;51.016;4.672;2023-02-26T05:08:32;6.35;;;2.85;;
56015;SDS011;41894;51.016;4.672;2023-02-26T05:10:58;9.38;;;2.60;;
56015;SDS011;41894;51.016;4.672;2023-02-26T05:13:24;10.82;;;3.28;;
56015;SDS011;41894;51.016;4.672;2023-02-26T05:15:52;10.32;;;3.30;;
56015;SDS011;41894;51.016;4.672;2023-02-26T05:18:18;13.15;;;3.10;;
56015;SDS011;41894;51.016;4.672;2023-02-26T05:20:44;10.85;;;3.17;;
56015;SDS011;41894;51.016;4.672;2023-02-26T05:23:15;8.68;;;2.97;;
56015;SDS011;41894;51.016;4.672;2023-02-26T05:25:41;7.90;;;2.70;;
56015;SDS011;41894;51.016;4.672;2023-02-26T05:28:07;14.95;;;3.45;;
56015;SDS011;41894;51.016;4.672;2023-02-26T05:30:33;7.53;;;3.10;;
56015;SDS011;41894;51.016;4.672;2023-02-26T05:32:59;12.93;;;2.90;;
56015;SDS011;41894;51.016;4.672;2023-02-26T05:35:25;8.55;;;3.35;;
56015;SDS011;41894;51.016;4.672;2023-02-26T05:37:50;12.02;;;3.40;;
56015;SDS011;41894;51.016;4.672;2023-02-26T05:40:19;6.38;;;2.70;;
56015;SDS011;41894;51.016;4.672;2023-02-26T05:42:57;10.75;;;2.88;;
56015;SDS011;41894;51.016;4.672;2023-02-26T05:48:18;10.65;;;2.92;;
56015;SDS011;41894;51.016;4.672;2023-02-26T05:50:44;15.98;;;3.13;;
56015;SDS011;41894;51.016;4.672;2023-02-26T05:53:10;9.98;;;3.38;;
56015;SDS011;41894;51.016;4.672;2023-02-26T05:55:36;8.55;;;2.90;;
56015;SDS011;41894;51.016;4.672;2023-02-26T05:58:02;10.23;;;3.13;;
56015;SDS011;41894;51.016;4.672;2023-02-26T06:00:28;10.55;;;3.60;;
56015;SDS011;41894;51.016;4.672;2023-02-26T06:02:55;10.20;;;3.00;;
56015;SDS011;41894;51.016;4.672;2023-02-26T06:05:21;11.52;;;2.78;;
56015;SDS011;41894;51.016;4.672;2023-02-26T06:07:47;7.55;;;3.00;;
56015;SDS011;41894;51.016;4.672;2023-02-26T06:10:13;7.15;;;2.85;;
56015;SDS011;41894;51.016;4.672;2023-02-26T06:12:39;8.23;;;2.90;;
56015;SDS011;41894;51.016;4.672;2023-02-26T06:15:05;9.18;;;3.13;;
56015;SDS011;41894;51.016;4.672;2023-02-26T06:17:32;12.35;;;3.22;;
56015;SDS011;41894;51.016;4.672;2023-02-26T06:19:59;12.48;;;2.80;;
56015;SDS011;41894;51.016;4.672;2023-02-26T06:22:25;9.27;;;2.72;;
56015;SDS011;41894;51.016;4.672;2023-02-26T06:24:51;6.57;;;2.83;;
56015;SDS011;41894;51.016;4.672;2023-02-26T06:27:22;10.23;;;3.92;;
56015;SDS011;41894;51.016;4.672;2023-02-26T06:29:56;7.38;;;2.75;;
56015;SDS011;41894;51.016;4.672;2023-02-26T06:32:29;8.38;;;2.60;;
56015;SDS011;41894;51.016;4.672;2023-02-26T06:35:03;14.68;;;3.20;;
56015;SDS011;41894;51.016;4.672;2023-02-26T06:37:38;8.77;;;2.80;;
56015;SDS011;41894;51.016;4.672;2023-02-26T06:40:21;12.25;;;2.92;;
56015;SDS011;41894;51.016;4.672;2023-02-26T06:42:56;10.73;;;2.80;;
56015;SDS011;41894;51.016;4.672;2023-02-26T06:46:10;7.57;;;2.67;;
56015;SDS011;41894;51.016;4.672;2023-02-26T06:48:40;7.85;;;2.60;;
56015;SDS011;41894;51.016;4.672;2023-02-26T06:51:06;7.60;;;2.80;;
56015;SDS011;41894;51.016;4.672;2023-02-26T06:53:33;14.85;;;2.70;;
56015;SDS011;41894;51.016;4.672;2023-02-26T06:55:59;9.48;;;2.72;;
56015;SDS011;41894;51.016;4.672;2023-02-26T06:58:25;6.80;;;2.70;;
56015;SDS011;41894;51.016;4.672;2023-02-26T07:00:51;8.35;;;2.55;;
56015;SDS011;41894;51.016;4.672;2023-02-26T07:03:17;10.75;;;3.15;;
56015;SDS011;41894;51.016;4.672;2023-02-26T07:05:44;12.65;;;2.95;;
56015;SDS011;41894;51.016;4.672;2023-02-26T07:08:10;17.77;;;3.80;;
56015;SDS011;41894;51.016;4.672;2023-02-26T07:10:37;8.18;;;2.70;;
56015;SDS011;41894;51.016;4.672;2023-02-26T07:13:04;7.78;;;3.13;;
56015;SDS011;41894;51.016;4.672;2023-02-26T07:15:30;6.93;;;2.50;;
56015;SDS011;41894;51.016;4.672;2023-02-26T07:17:57;6.28;;;2.35;;
56015;SDS011;41894;51.016;4.672;2023-02-26T07:20:24;15.95;;;2.58;;
56015;SDS011;41894;51.016;4.672;2023-02-26T07:22:51;6.90;;;2.25;;
56015;SDS011;41894;51.016;4.672;2023-02-26T07:25:17;9.00;;;2.90;;
56015;SDS011;41894;51.016;4.672;2023-02-26T07:27:43;8.25;;;3.20;;
56015;SDS011;41894;51.016;4.672;2023-02-26T07:30:09;7.00;;;2.40;;
56015;SDS011;41894;51.016;4.672;2023-02-26T07:32:36;8.45;;;2.55;;
56015;SDS011;41894;51.016;4.672;2023-02-26T07:35:02;9.57;;;2.55;;
56015;SDS011;41894;51.016;4.672;2023-02-26T07:37:28;10.48;;;2.22;;
56015;SDS011;41894;51.016;4.672;2023-02-26T07:39:54;4.18;;;2.03;;
56015;SDS011;41894;51.016;4.672;2023-02-26T07:42:20;5.53;;;2.13;;
56015;SDS011;41894;51.016;4.672;2023-02-26T07:44:46;8.20;;;2.65;;
56015;SDS011;41894;51.016;4.672;2023-02-26T07:47:12;7.10;;;2.75;;
56015;SDS011;41894;51.016;4.672;2023-02-26T07:49:45;9.32;;;2.67;;
56015;SDS011;41894;51.016;4.672;2023-02-26T07:52:11;6.25;;;2.38;;
56015;SDS011;41894;51.016;4.672;2023-02-26T07:54:42;5.60;;;2.28;;
56015;SDS011;41894;51.016;4.672;2023-02-26T07:57:29;10.98;;;2.60;;
56015;SDS011;41894;51.016;4.672;2023-02-26T07:59:57;5.90;;;2.25;;
56015;SDS011;41894;51.016;4.672;2023-02-26T08:02:23;7.13;;;2.20;;
56015;SDS011;41894;51.016;4.672;2023-02-26T08:04:49;7.70;;;2.70;;
56015;SDS011;41894;51.016;4.672;2023-02-26T08:07:15;9.25;;;2.90;;
56015;SDS011;41894;51.016;4.672;2023-02-26T08:09:41;8.05;;;2.50;;
56015;SDS011;41894;51.016;4.672;2023-02-26T08:12:07;9.02;;;2.53;;
56015;SDS011;41894;51.016;4.672;2023-02-26T08:15:02;10.63;;;3.00;;
56015;SDS011;41894;51.016;4.672;2023-02-26T08:17:51;8.38;;;2.63;;
56015;SDS011;41894;51.016;4.672;2023-02-26T08:34:40;5.53;;;2.00;;
56015;SDS011;41894;51.016;4.672;2023-02-26T08:37:19;7.50;;;2.22;;
56015;SDS011;41894;51.016;4.672;2023-02-26T08:39:51;6.50;;;2.15;;
56015;SDS011;41894;51.016;4.672;2023-02-26T08:49:30;8.15;;;2.65;;
56015;SDS011;41894;51.016;4.672;2023-02-26T08:52:08;7.88;;;2.42;;
56015;SDS011;41894;51.016;4.672;2023-02-26T08:54:34;6.53;;;2.20;;
56015;SDS011;41894;51.016;4.672;2023-02-26T08:57:03;6.18;;;2.38;;
56015;SDS011;41894;51.016;4.672;2023-02-26T09:00:07;10.05;;;2.55;;
56015;SDS011;41894;51.016;4.672;2023-02-26T09:02:36;5.80;;;2.60;;
56015;SDS011;41894;51.016;4.672;2023-02-26T09:05:03;7.00;;;2.13;;
56015;SDS011;41894;51.016;4.672;2023-02-26T09:07:36;7.45;;;2.10;;
56015;SDS011;41894;51.016;4.672;2023-02-26T09:10:04;7.32;;;2.00;;
56015;SDS011;41894;51.016;4.672;2023-02-26T09:12:31;6.05;;;2.30;;
56015;SDS011;41894;51.016;4.672;2023-02-26T09:14:59;6.22;;;2.45;;
56015;SDS011;41894;51.016;4.672;2023-02-26T09:17:36;8.30;;;2.55;;
56015;SDS011;41894;51.016;4.672;2023-02-26T09:20:02;6.63;;;2.33;;
56015;SDS011;41894;51.016;4.672;2023-02-26T09:22:38;5.53;;;2.28;;
56015;SDS011;41894;51.016;4.672;2023-02-26T09:25:24;5.67;;;1.97;;
56015;SDS011;41894;51.016;4.672;2023-02-26T09:27:50;8.38;;;2.20;;
56015;SDS011;41894;51.016;4.672;2023-02-26T09:36:47;4.45;;;2.10;;
56015;SDS011;41894;51.016;4.672;2023-02-26T09:51:55;6.68;;;2.65;;
56015;SDS011;41894;51.016;4.672;2023-02-26T09:54:27;7.00;;;2.55;;
56015;SDS011;41894;51.016;4.672;2023-02-26T09:57:03;5.15;;;1.92;;
56015;SDS011;41894;51.016;4.672;2023-02-26T09:59:34;6.88;;;2.20;;
56015;SDS011;41894;51.016;4.672;2023-02-26T10:02:11;6.53;;;2.38;;
56015;SDS011;41894;51.016;4.672;2023-02-26T10:07:50;3.70;;;2.20;;
56015;SDS011;41894;51.016;4.672;2023-02-26T10:16:13;4.35;;;1.80;;
56015;SDS011;41894;51.016;4.672;2023-02-26T10:19:02;5.28;;;1.77;;
56015;SDS011;41894;51.016;4.672;2023-02-26T10:24:10;6.90;;;1.88;;
56015;SDS011;41894;51.016;4.672;2023-02-26T10:27:23;4.35;;;1.83;;
56015;SDS011;41894;51.016;4.672;2023-02-26T10:35:00;4.65;;;1.50;;
56015;SDS011;41894;51.016;4.672;2023-02-26T10:40:26;3.45;;;1.98;;
56015;SDS011;41894;51.016;4.672;2023-02-26T10:43:18;5.90;;;1.90;;
56015;SDS011;41894;51.016;4.672;2023-02-26T10:46:03;3.13;;;1.63;;
56015;SDS011;41894;51.016;4.672;2023-02-26T10:51:19;3.80;;;1.85;;
56015;SDS011;41894;51.016;4.672;2023-02-26T10:53:59;7.15;;;2.00;;
56015;SDS011;41894;51.016;4.672;2023-02-26T10:56:32;4.53;;;1.70;;
56015;SDS011;41894;51.016;4.672;2023-02-26T10:59:01;5.15;;;1.90;;
56015;SDS011;41894;51.016;4.672;2023-02-26T11:01:30;3.08;;;1.73;;
56015;SDS011;41894;51.016;4.672;2023-02-26T11:04:06;4.25;;;1.90;;
56015;SDS011;41894;51.016;4.672;2023-02-26T11:06:41;4.90;;;1.70;;
56015;SDS011;41894;51.016;4.672;2023-02-26T11:12:33;4.38;;;2.13;;
56015;SDS011;41894;51.016;4.672;2023-02-26T11:14:41;3.17;;;1.80;;
56015;SDS011;41894;51.016;4.672;2023-02-26T11:17:10;5.38;;;2.05;;
56015;SDS011;41894;51.016;4.672;2023-02-26T11:19:52;5.00;;;2.20;;
56015;SDS011;41894;51.016;4.672;2023-02-26T11:22:27;3.88;;;1.73;;
56015;SDS011;41894;51.016;4.672;2023-02-26T11:24:56;3.65;;;1.80;;
56015;SDS011;41894;51.016;4.672;2023-02-26T11:27:24;4.50;;;2.00;;
56015;SDS011;41894;51.016;4.672;2023-02-26T11:29:57;4.72;;;1.60;;
56015;SDS011;41894;51.016;4.672;2023-02-26T11:32:36;5.63;;;2.03;;
56015;SDS011;41894;51.016;4.672;2023-02-26T11:35:14;4.75;;;1.70;;
56015;SDS011;41894;51.016;4.672;2023-02-26T11:37:45;6.43;;;2.13;;
56015;SDS011;41894;51.016;4.672;2023-02-26T11:40:18;5.03;;;1.70;;
56015;SDS011;41894;51.016;4.672;2023-02-26T11:43:33;5.18;;;2.00;;
56015;SDS011;41894;51.016;4.672;2023-02-26T11:48:46;4.28;;;1.73;;
56015;SDS011;41894;51.016;4.672;2023-02-26T11:51:20;5.38;;;1.92;;
56015;SDS011;41894;51.016;4.672;2023-02-26T11:53:51;6.82;;;2.03;;
56015;SDS011;41894;51.016;4.672;2023-02-26T11:56:37;4.70;;;1.80;;
56015;SDS011;41894;51.016;4.672;2023-02-26T12:04:21;4.32;;;1.88;;
56015;SDS011;41894;51.016;4.672;2023-02-26T12:06:54;3.65;;;1.92;;
56015;SDS011;41894;51.016;4.672;2023-02-26T12:09:20;4.40;;;1.70;;
56015;SDS011;41894;51.016;4.672;2023-02-26T12:11:58;2.42;;;1.70;;
56015;SDS011;41894;51.016;4.672;2023-02-26T12:23:36;6.30;;;1.83;;
56015;SDS011;41894;51.016;4.672;2023-02-26T12:26:42;5.10;;;1.80;;
56015;SDS011;41894;51.016;4.672;2023-02-26T12:43:50;2.95;;;1.67;;
56015;SDS011;41894;51.016;4.672;2023-02-26T12:50:02;4.10;;;1.80;;
56015;SDS011;41894;51.016;4.672;2023-02-26T12:58:13;3.70;;;1.60;;
56015;SDS011;41894;51.016;4.672;2023-02-26T13:20:37;5.47;;;1.60;;
56015;SDS011;41894;51.016;4.672;2023-02-26T13:26:17;5.70;;;1.98;;
56015;SDS011;41894;51.016;4.672;2023-02-26T13:28:58;5.28;;;1.65;;
56015;SDS011;41894;51.016;4.672;2023-02-26T13:31:44;2.60;;;1.58;;
